createdAt,value
2022-09-23T00:00:22.230Z,4173.9
2022-09-23T00:05:57.197Z,4174.6
2022-09-23T00:11:53.868Z,4173.3
2022-09-23T00:17:27.424Z,4176.6
2022-09-23T00:23:02.384Z,4176.6
2022-09-23T00:28:37.760Z,4174.9
2022-09-23T00:34:12.605Z,4172.6
2022-09-23T00:39:47.307Z,4173.8
2022-09-23T00:45:23.565Z,4172.6
2022-09-23T00:50:59.471Z,4172.6
2022-09-23T00:56:38.709Z,4171.8
2022-09-23T01:02:14.826Z,4173.9
2022-09-23T01:07:49.719Z,4170.4
2022-09-23T01:13:46.354Z,4167.7
2022-09-23T01:19:26.919Z,4168.9
2022-09-23T01:25:01.755Z,4168.4
2022-09-23T01:30:38.183Z,4169.2
2022-09-23T01:36:14.611Z,4173.1
2022-09-23T01:41:53.528Z,4168.7
2022-09-23T01:47:28.282Z,4169.4
2022-09-23T01:53:03.355Z,4167.4
2022-09-23T01:58:44.556Z,4170.9
2022-09-23T02:04:46.672Z,4167.1
2022-09-23T02:10:22.182Z,4171.6
2022-09-23T02:15:56.991Z,4168.1
2022-09-23T02:21:31.757Z,4168.4
2022-09-23T02:27:06.612Z,4169.7
2022-09-23T02:32:50.110Z,4167.9
2022-09-23T02:38:26.104Z,4167.4
2022-09-23T02:44:01.287Z,4168.9
2022-09-23T02:49:36.467Z,4164.6
2022-09-23T02:55:12.055Z,4165.2
2022-09-23T03:00:48.077Z,4165.4
2022-09-23T03:06:22.864Z,4164.4
2022-09-23T03:12:19.369Z,4161.9
2022-09-23T03:18:00.302Z,4163.7
2022-09-23T03:23:36.011Z,4161.9
2022-09-23T03:29:13.859Z,4163.7
2022-09-23T03:34:48.643Z,4163.2
2022-09-23T03:40:24.424Z,4164.7
2022-09-23T03:46:00.205Z,4163.9
2022-09-23T03:51:41.530Z,4161.9
2022-09-23T03:57:19.075Z,4161.7
2022-09-23T04:02:53.830Z,4160
2022-09-23T04:08:29.370Z,4159.5
2022-09-23T04:14:26.067Z,4157
2022-09-23T04:19:58.657Z,4160.4
2022-09-23T04:25:54.353Z,4161
2022-09-23T04:31:32.378Z,4160.5
2022-09-23T04:37:07.256Z,4158.7
2022-09-23T04:42:42.817Z,4160.2
2022-09-23T04:48:17.910Z,4160.7
2022-09-23T04:54:14.474Z,4159.7
2022-09-23T04:59:49.547Z,4157.9
2022-09-23T05:05:27.729Z,4157.7
2022-09-23T05:11:28.666Z,4152.3
2022-09-23T05:17:01.157Z,4157
2022-09-23T05:22:36.077Z,4156.2
2022-09-23T05:28:12.546Z,4155.3
2022-09-23T05:33:47.483Z,4156.3
2022-09-23T05:39:22.579Z,4153.7
2022-09-23T05:45:08.933Z,4153.8
2022-09-23T05:50:50.677Z,4155
2022-09-23T05:56:25.339Z,4152.7
2022-09-23T06:02:10.959Z,4155
2022-09-23T06:07:52.628Z,4152.7
2022-09-23T06:13:49.747Z,4157.9
2022-09-23T06:19:23.340Z,4162.4
2022-09-23T06:24:59.227Z,4161.4
2022-09-23T06:30:33.972Z,4168.2
2022-09-23T06:36:09.151Z,4164.4
2022-09-23T06:41:46.059Z,4169.1
2022-09-23T06:47:21.004Z,4169.1
2022-09-23T06:52:56.173Z,4166.1
2022-09-23T06:58:32.391Z,4168.1
2022-09-23T07:04:09.169Z,4177.8
2022-09-23T07:09:44.220Z,4185.7
2022-09-23T07:15:20.313Z,4198.4
2022-09-23T07:20:56.602Z,4179.8
2022-09-23T07:26:51.916Z,4174.9
2022-09-23T07:32:58.783Z,4178.5
2022-09-23T07:38:45.358Z,4194.4
2022-09-23T07:44:29.101Z,4191.7
2022-09-23T07:50:04.582Z,4192.9
2022-09-23T07:55:40.925Z,4209.8
2022-09-23T08:01:16.407Z,4216.3
2022-09-23T08:06:53.166Z,4206.4
2022-09-23T08:12:49.902Z,4210.6
2022-09-23T08:18:23.435Z,4202.2
2022-09-23T08:24:03.397Z,4207.8
2022-09-23T08:29:38.778Z,4205.3
2022-09-23T08:35:22.107Z,4209.1
2022-09-23T08:40:57.625Z,4203.2
2022-09-23T08:46:42.206Z,4207.1
2022-09-23T08:52:17.286Z,4214.1
2022-09-23T08:58:28.403Z,4214.6
2022-09-23T09:04:03.544Z,4225.5
2022-09-23T09:09:38.407Z,4207.8
2022-09-23T09:15:13.261Z,4208.4
2022-09-23T09:20:49.265Z,4214
2022-09-23T09:26:24.273Z,4213
2022-09-23T09:31:59.681Z,4216.5
2022-09-23T09:37:34.758Z,4217.5
2022-09-23T09:43:09.977Z,4225.4
2022-09-23T09:48:44.897Z,4223.7
2022-09-23T09:54:19.826Z,4216
2022-09-23T10:01:17.470Z,4224.5
2022-09-23T10:06:53.645Z,4218.7
2022-09-23T10:12:28.382Z,4213.1
2022-09-23T10:18:03.151Z,4217.5
2022-09-23T10:23:38.266Z,4219.3
2022-09-23T10:29:13.986Z,4217
2022-09-23T10:34:55.749Z,4220
2022-09-23T10:40:31.902Z,4220.7
2022-09-23T10:46:08.231Z,4226.2
2022-09-23T10:51:52.197Z,4215.3
2022-09-23T10:57:27.492Z,4223.3
2022-09-23T11:03:02.217Z,4214.3
2022-09-23T11:08:37.123Z,4220.5
2022-09-23T11:14:13.235Z,4220.5
2022-09-23T11:20:10.013Z,4217
2022-09-23T11:25:44.961Z,4225.7
2022-09-23T11:31:24.804Z,4216.5
2022-09-23T11:37:03.462Z,4216
2022-09-23T11:42:40.618Z,4222.5
2022-09-23T11:48:16.525Z,4219
2022-09-23T11:53:51.601Z,4220
2022-09-23T11:59:42.496Z,4215.1
2022-09-23T12:05:20.577Z,4223.7
2022-09-23T12:10:56.586Z,4225.4
2022-09-23T12:16:32.282Z,4220.7
2022-09-23T12:22:08.960Z,4229.9
2022-09-23T12:27:44.075Z,4222.7
2022-09-23T12:33:19.159Z,4229
2022-09-23T12:38:54.346Z,4223.7
2022-09-23T12:44:29.144Z,4222.3
2022-09-23T12:50:03.935Z,4214.8
2022-09-23T12:55:39.083Z,4215.6
2022-09-23T13:01:16.382Z,4219.7
2022-09-23T13:06:51.698Z,4213
2022-09-23T13:12:27.579Z,4222.3
2022-09-23T13:18:04.883Z,4219.3
2022-09-23T13:23:39.653Z,4216.3
2022-09-23T13:29:14.643Z,4223.7
2022-09-23T13:34:49.485Z,4227
2022-09-23T13:40:29.176Z,4218.8
2022-09-23T13:46:09.297Z,4222.2
2022-09-23T13:51:44.809Z,4217.3
2022-09-23T13:57:19.859Z,4216.1
2022-09-23T14:02:55.074Z,4217.5
2022-09-23T14:08:30.170Z,4217.1
2022-09-23T14:14:05.075Z,4213
2022-09-23T14:19:40.994Z,4215.5
2022-09-23T14:25:15.954Z,4219
2022-09-23T14:30:52.163Z,4221.7
2022-09-23T14:36:28.046Z,4219
2022-09-23T14:42:03.310Z,4219.3
2022-09-23T14:47:38.141Z,4220.2
2022-09-23T14:53:13.503Z,4220.7
2022-09-23T14:58:54.622Z,4219.2
2022-09-23T15:04:29.480Z,4228
2022-09-23T15:10:05.399Z,4219.2
2022-09-23T15:15:40.730Z,4217
2022-09-23T15:21:15.516Z,4216.6
2022-09-23T15:26:50.618Z,4208.1
2022-09-23T15:32:26.594Z,4212
2022-09-23T15:38:01.287Z,4205.6
2022-09-23T15:43:45.216Z,4204.4
2022-09-23T15:49:23.209Z,4204.8
2022-09-23T15:54:58.110Z,4203.2
2022-09-23T16:00:33.743Z,4203.2
2022-09-23T16:06:08.538Z,4204.3
2022-09-23T16:11:43.749Z,4203.4
2022-09-23T16:17:18.899Z,4202.9
2022-09-23T16:22:54.696Z,4206.4
2022-09-23T16:28:29.425Z,4203.9
2022-09-23T16:34:07.736Z,4201.7
2022-09-23T16:39:44.458Z,4198.9
2022-09-23T16:45:20.509Z,4195
2022-09-23T16:50:55.367Z,4197.9
2022-09-23T16:56:30.626Z,4198.2
2022-09-23T17:02:08.994Z,4194.9
2022-09-23T17:07:44.018Z,4195.4
2022-09-23T17:13:19.337Z,4195.5
2022-09-23T17:18:54.743Z,4195.2
2022-09-23T17:24:29.874Z,4195.7
2022-09-23T17:30:04.907Z,4194.4
2022-09-23T17:35:40.881Z,4194.7
2022-09-23T17:41:27.692Z,4190.5
2022-09-23T17:47:02.482Z,4190.9
2022-09-23T17:52:37.141Z,4193
2022-09-23T17:58:12.091Z,4192.7
2022-09-23T18:03:47.186Z,4192.5
2022-09-23T18:09:22.058Z,4188
2022-09-23T18:14:57.288Z,4191.2
2022-09-23T18:20:32.363Z,4190.3
2022-09-23T18:26:07.251Z,4189.3
2022-09-23T18:31:43.543Z,4188.2
2022-09-23T18:37:19.576Z,4186.2
2022-09-23T18:42:55.460Z,4187.8
2022-09-23T18:48:32.353Z,4185
2022-09-23T18:54:09.359Z,4187.5
2022-09-23T18:59:44.167Z,4185.5
2022-09-23T19:05:20.407Z,4188.3
2022-09-23T19:11:16.974Z,4183.8
2022-09-23T19:16:50.572Z,4188
2022-09-23T19:22:25.907Z,4183.1
2022-09-23T19:28:01.798Z,4181.6
2022-09-23T19:33:37.081Z,4182.6
2022-09-23T19:39:13.543Z,4182.8
2022-09-23T19:44:48.457Z,4182.3
2022-09-23T19:50:23.831Z,4183
2022-09-23T19:55:58.950Z,4183.6
2022-09-23T20:01:35.834Z,4186.7
2022-09-23T20:07:10.956Z,4183.3
2022-09-23T20:12:45.814Z,4181.5
2022-09-23T20:18:20.878Z,4181.1
2022-09-23T20:23:55.847Z,4176.6
2022-09-23T20:29:30.729Z,4179.8
2022-09-23T20:35:06.008Z,4181.8
2022-09-23T20:40:41.938Z,4181
2022-09-23T20:46:18.354Z,4181
2022-09-23T20:51:53.751Z,4181.5
2022-09-23T20:57:28.811Z,4180.6
2022-09-23T21:03:03.934Z,4176.3
2022-09-23T21:08:38.661Z,4177.8
2022-09-23T21:14:13.519Z,4178
2022-09-23T21:19:49.463Z,4177.8
2022-09-23T21:25:34.311Z,4177.5
2022-09-23T21:31:10.740Z,4176.9
2022-09-23T21:36:45.886Z,4178.6
2022-09-23T21:42:23.388Z,4180
2022-09-23T21:47:58.387Z,4176.8
2022-09-23T21:53:33.496Z,4178.3
2022-09-23T21:59:16.157Z,4176.1
2022-09-23T22:04:51.119Z,4179.6
2022-09-23T22:10:26.070Z,4176.6
2022-09-23T22:16:02.106Z,4176.6
2022-09-23T22:21:38.437Z,4177.1
2022-09-23T22:27:16.039Z,4176.3
2022-09-23T22:32:58.227Z,4175.4
2022-09-23T22:38:35.577Z,4176.8
2022-09-23T22:44:10.827Z,4172.6
2022-09-23T22:49:46.703Z,4171.6
2022-09-23T22:55:22.714Z,4174.3
2022-09-23T23:00:57.990Z,4174.4
2022-09-23T23:06:33.851Z,4175.6
2022-09-23T23:12:30.587Z,4170.9
2022-09-23T23:18:03.128Z,4173.9
2022-09-23T23:23:37.812Z,4172.6
2022-09-23T23:29:13.856Z,4172.9
2022-09-23T23:34:48.768Z,4174.3
2022-09-23T23:40:24.825Z,4173.1
2022-09-23T23:45:59.668Z,4171.4
2022-09-23T23:51:34.646Z,4173.1
2022-09-23T23:57:09.637Z,4170.4
